Metar Cercanos

 

LEPA - Palma De Mallorc, Spain
Distance from station: ONO 38km
Actualización: Wed, 29-May-2024 12:00am CEST
Few Clouds
Few Clouds
 Viento del S
Viento: S 6 km/h
Temperatura: 20°C
Rocío: 18°C
Humedad: 88%
Barómetro: 1019 hPa
Clouds: Few Clouds
Visibility: 10 km
Cloud details: Few Clouds 762 m
2024/05/28 22:00 LEPA 282200Z 17003KT 9999 FEW025 20/18 Q1019 NOSIG
LEMH - Mahon/Menorca Is, Spain
Distance from station: ENE 105km
Actualización: Wed, 29-May-2024 12:00am CEST
Few Clouds
Few Clouds
 Viento del NO
Viento: NO 4 km/h
Temperatura: 16°C
Rocío: 10°C
Humedad: 68%
Barómetro: 1019 hPa
Clouds: Few Clouds
Visibility: 10 km
Cloud details: Few Clouds 610 m
2024/05/28 22:00 LEMH 282200Z 31002KT 9999 FEW020 16/10 Q1019
 
LEIB - Ibiza/Es Codola, Spain
Distance from station: OSO 165km
Actualización: Wed, 29-May-2024 12:00am CEST
Despejado
Despejado
 Viento del varies
Viento: varies 4 km/h
Temperatura: 19°C
Rocío: 14°C
Humedad: 73%
Barómetro: 1019 hPa
Resumen: Despejado
Visibility: greater than 10 km
2024/05/28 22:00 LEIB 282200Z VRB02KT CAVOK 19/14 Q1019 NOSIG
LEBL - Barcelona Airpor, Spain
Distance from station: NNO 225km
Actualización: Wed, 29-May-2024 12:00am CEST
Despejado
Despejado
 Viento del OSO
Viento: OSO 13 km/h
Temperatura: 18°C
Rocío: 16°C
Humedad: 88%
Barómetro: 1019 hPa
Resumen: Despejado
Visibility: greater than 10 km
2024/05/28 22:00 LEBL 282200Z 25007KT CAVOK 18/16 Q1019 NOSIG
 
LEVC - Valencia (civ/Mi, Spain
Distance from station: NO 188km
Actualización: Wed, 29-May-2024 12:00am CEST
Despejado
Despejado
 Viento del N
Viento: N 6 km/h
Temperatura: 20°C
Rocío: 15°C
Humedad: 73%
Barómetro: 1019 hPa
Resumen: Despejado
Visibility: greater than 10 km
2024/05/28 22:00 LEVC 282200Z 01003KT 300V080 CAVOK 20/15 Q1019 NOSIG
LEGE - Gerona/Costa Bra, Spain
Distance from station: N 276km
Actualización: Wed, 29-May-2024 12:00am CEST
Few Clouds
Few Clouds
 Viento del varies
Viento: varies 2 km/h
Temperatura: 17°C
Rocío: 15°C
Humedad: 88%
Barómetro: 1018 hPa
Clouds: Few Clouds
Visibility: 10 km
Cloud details: Few Clouds 914 m
2024/05/28 22:00 LEGE 282200Z VRB01KT 9999 FEW030 17/15 Q1018 NOSIG
 
LEAL - Alicante/El Alte, Spain
Distance from station: OSO 344km
Actualización: Wed, 29-May-2024 12:00am CEST
Despejado
Despejado
 Viento del varies
Viento: varies 4 km/h
Temperatura: 20°C
Rocío: 13°C
Humedad: 64%
Barómetro: 1020 hPa
Resumen: Despejado
Visibility: greater than 10 km
2024/05/28 22:00 LEAL 282200Z VRB02KT CAVOK 20/13 Q1020 NOSIG
LEAM - Almeria Airport, Spain
Distance from station: SSO 56km
Actualización: Wed, 29-May-2024 12:00am CEST
Despejado
Despejado
 Viento del ENE
Viento: ENE 15 km/h
Temperatura: 21°C
Rocío: 17°C
Humedad: 78%
Barómetro: 1019 hPa
Resumen: Despejado
Visibility: greater than 10 km
2024/05/28 22:00 LEAM 282200Z AUTO 07008KT CAVOK 21/17 Q1019
 
LEZG - Zaragoza (mil/Ci, Spain
Distance from station: NO 431km
Actualización: Wed, 29-May-2024 12:00am CEST
Despejado
Despejado
 Viento del O
Viento: O 15 km/h
Temperatura: 22°C
Rocío: 10°C
Humedad: 47%
Barómetro: 1018 hPa
Resumen: Despejado
Visibility: greater than 10 km
2024/05/28 22:00 LEZG 282200Z 28008KT CAVOK 22/10 Q1018 NOSIG
LEMD - Madrid/Barajas, Spain
Distance from station: ONO 234km
Actualización: Wed, 29-May-2024 12:00am CEST
Despejado
Despejado
 Viento del NNE
Viento: NNE 9 km/h
Temperatura: 23°C
Rocío: 9°C
Humedad: 41%
Barómetro: 1018 hPa
Resumen: Despejado
Visibility: greater than 10 km
2024/05/28 22:00 LEMD 282200Z 02005KT 340V060 CAVOK 23/09 Q1018 NOSIG
 
LEGR - Granada Airport, Spain
Distance from station: OSO 62km
Actualización: Wed, 29-May-2024 12:00am CEST
Despejado
Despejado
 Viento del varies
Viento: varies 4 km/h
Temperatura: 22°C
Rocío: 16°C
Humedad: 69%
Barómetro: 1020 hPa
Resumen: Despejado
Visibility: greater than 10 km
2024/05/28 22:00 LEGR 282200Z AUTO VRB02KT CAVOK 22/16 Q1020
LEMG - Malaga (civ/Mil), Spain
Distance from station: OSO 227km
Actualización: Wed, 29-May-2024 12:00am CEST
Despejado
Despejado
 Viento del ESE
Viento: ESE 4 km/h
Temperatura: 19°C
Rocío: 17°C
Humedad: 88%
Barómetro: 1019 hPa
Resumen: Despejado
Visibility: greater than 10 km
2024/05/28 22:00 LEMG 282200Z 12002KT CAVOK 19/17 Q1019 NOSIG
 
LEZL - Sevilla (civ/Mil, Spain
Distance from station: S 318km
Actualización: Wed, 29-May-2024 12:00am CEST
Despejado
Despejado
 Viento del OSO
Viento: OSO 11 km/h
Temperatura: 25°C
Rocío: 15°C
Humedad: 54%
Barómetro: 1016 hPa
Resumen: Despejado
Visibility: greater than 10 km
2024/05/28 22:00 LEZL 282200Z 25006KT CAVOK 25/15 Q1016 NOSIG
LEVT - Vitoria, Spain
Distance from station: NO 226km
Actualización: Wed, 29-May-2024 12:00am CEST
Despejado
Despejado
 Viento del NE
Viento: NE 7 km/h
Temperatura: 12°C
Rocío: 9°C
Humedad: 82%
Barómetro: 1022 hPa
Resumen: Despejado
Visibility: greater than 10 km
2024/05/28 22:00 LEVT 282200Z 05004KT CAVOK 12/09 Q1022
 
LEBB - Bilbao/Sondica, Spain
Distance from station: NNO 235km
Actualización: Wed, 29-May-2024 12:00am CEST
Despejado
Despejado
 Viento del ENE
Viento: ENE 4 km/h
Temperatura: 14°C
Rocío: 13°C
Humedad: 94%
Barómetro: 1022 hPa
Resumen: Despejado
Visibility: greater than 10 km
2024/05/28 22:00 LEBB 282200Z 07002KT CAVOK 14/13 Q1022 NOSIG
LESO - San Sebastian/Fu, Spain
Distance from station: N 231km
Actualización: Wed, 29-May-2024 12:00am CEST
Despejado
Despejado
 Viento del S
Viento: S 6 km/h
Temperatura: 15°C
Rocío: 14°C
Humedad: 94%
Barómetro: 1022 hPa
Resumen: Despejado
Visibility: greater than 10 km
2024/05/28 22:00 LESO 282200Z AUTO 18003KT CAVOK 15/14 Q1022
 
LEVD - Valladolid(Mil/C, Spain
Distance from station: ONO 239km
Actualización: Wed, 29-May-2024 12:00am CEST
Despejado
Despejado
 Viento del NNE
Viento: NNE 7 km/h
Temperatura: 15°C
Rocío: 9°C
Humedad: 68%
Barómetro: 1021 hPa
Resumen: Despejado
Visibility: greater than 10 km
2024/05/28 22:00 LEVD 282200Z AUTO 03004KT CAVOK 15/09 Q1021
LESA - Salamanca (civ/M, Spain
Distance from station: ONO 349km
Actualización: Wed, 29-May-2024 12:00am CEST
Despejado
Despejado
 Viento del O
Viento: O 4 km/h
Temperatura: 17°C
Rocío: 10°C
Humedad: 64%
Barómetro: 1021 hPa
Resumen: Despejado
Visibility: greater than 10 km
2024/05/28 22:00 LESA 282200Z AUTO 26002KT CAVOK 17/10 Q1021
 
LEXJ - Santander/Paraya, Spain
Distance from station: NNO 247km
Actualización: Wed, 29-May-2024 12:00am CEST
Despejado
Despejado
 Viento del O
Viento: O 4 km/h
Temperatura: 14°C
Rocío: 12°C
Humedad: 88%
Barómetro: 1022 hPa
Resumen: Despejado
Visibility: greater than 10 km
2024/05/28 22:00 LEXJ 282200Z AUTO 27002KT CAVOK 14/12 Q1022
LEAS - Asturias/Aviles, Spain
Distance from station: NO 214km
Actualización: Wed, 29-May-2024 12:00am CEST
Despejado
Despejado
 Viento del O
Viento: O 2 km/h
Temperatura: 14°C
Rocío: 12°C
Humedad: 88%
Barómetro: 1022 hPa
Resumen: Despejado
Visibility: greater than 10 km
2024/05/28 22:00 LEAS 282200Z 27001KT CAVOK 14/12 Q1022 NOSIG
 
LECO - La Coruna/Alvedr, Spain
Distance from station: ONO 222km
Actualización: Wed, 29-May-2024 12:00am CEST
Despejado
Despejado
 Viento del varies
Viento: varies 2 km/h
Temperatura: 13°C
Rocío: 11°C
Humedad: 88%
Barómetro: 1022 hPa
Resumen: Despejado
Visibility: greater than 10 km
2024/05/28 22:00 LECO 282200Z VRB01KT CAVOK 13/11 Q1022 NOSIG
LEVX - Vigo/Peinador, Spain
Distance from station: O 214km
Actualización: Wed, 29-May-2024 12:00am CEST
Despejado
Despejado
 Viento del NO
Viento: NO 6 km/h
Temperatura: 14°C
Rocío: 12°C
Humedad: 88%
Barómetro: 1021 hPa
Resumen: Despejado
Visibility: greater than 10 km
2024/05/28 22:00 LEVX 282200Z 31003KT 290V350 CAVOK 14/12 Q1021 NOSIG